Acomb, United Kingdom
Current Conditions -  °F | °C
As of 3:50 AM on Sunday 23 Nov 2014 (Local Time) from EGXU Reporting Station
Overcast Overcast  
Wind Chill: 42°   Ceiling: 6000
Heat Index: 46°   Visibility: 6mi
Dew Point: 45°   Wind: 8mph
Humidity: 93%   Direction: 270°W
Pressure: 29.97"   Gusts: NA
Location:  53.96°N, 1.11°W
Report Text: EGXU 230350Z AUTO 27007KT 9000 // OVC060/// 08/07 Q1015
Loading
Personal Weather Stations






























Interactive Weather Map New forecast layout! Learn more

10-Day Weather Forecast

Advertisements
Track Severe Weather on mobile